createdAt,value
2024-02-02T00:01:33.994Z,0.06
2024-02-02T00:04:01.845Z,0.05
2024-02-02T00:06:30.525Z,0.04
2024-02-02T00:08:58.386Z,0.04
2024-02-02T00:11:26.316Z,0.04
2024-02-02T00:13:54.406Z,0.03
2024-02-02T00:16:23.116Z,0.02
2024-02-02T00:18:51.212Z,0.02
2024-02-02T00:21:19.411Z,0.02
2024-02-02T00:23:47.305Z,-0.01
2024-02-02T00:26:15.265Z,-0.01
2024-02-02T00:28:43.465Z,-0.02
2024-02-02T00:31:11.483Z,-0.01
2024-02-02T00:33:39.627Z,0.00
2024-02-02T00:36:08.170Z,0.01
2024-02-02T00:38:36.022Z,0.01
2024-02-02T00:41:04.829Z,0.02
2024-02-02T00:43:32.890Z,0.01
2024-02-02T00:46:00.714Z,0.02
2024-02-02T00:48:29.359Z,0.01
2024-02-02T00:50:57.493Z,-0.01
2024-02-02T00:53:25.465Z,-0.04
2024-02-02T00:55:53.404Z,-0.10
2024-02-02T00:58:21.382Z,-0.12
2024-02-02T01:00:49.448Z,-0.15
2024-02-02T01:03:17.680Z,-0.16
2024-02-02T01:05:45.696Z,-0.18
2024-02-02T01:08:13.676Z,-0.20
2024-02-02T01:10:41.586Z,-0.22
2024-02-02T01:13:09.885Z,-0.25
2024-02-02T01:15:37.982Z,-0.26
2024-02-02T01:18:08.731Z,-0.24
2024-02-02T01:20:36.915Z,-0.25
2024-02-02T01:23:05.294Z,-0.23
2024-02-02T01:25:33.567Z,-0.22
2024-02-02T01:28:01.778Z,-0.21
2024-02-02T01:30:31.092Z,-0.19
2024-02-02T01:32:59.078Z,-0.19
2024-02-02T01:35:27.342Z,-0.19
2024-02-02T01:37:55.177Z,-0.17
2024-02-02T01:40:23.258Z,-0.15
2024-02-02T01:42:51.655Z,-0.16
2024-02-02T01:45:19.670Z,-0.15
2024-02-02T01:47:47.806Z,-0.15
2024-02-02T01:50:15.696Z,-0.14
2024-02-02T01:52:43.660Z,-0.13
2024-02-02T01:55:11.875Z,-0.13
2024-02-02T01:57:41.094Z,-0.13
2024-02-02T02:00:12.133Z,-0.12
2024-02-02T02:02:40.385Z,-0.11
2024-02-02T02:05:10.349Z,-0.12
2024-02-02T02:07:40.175Z,-0.12
2024-02-02T02:10:09.718Z,-0.12
2024-02-02T02:12:37.777Z,-0.11
2024-02-02T02:15:06.516Z,-0.12
2024-02-02T02:17:34.340Z,-0.16
2024-02-02T02:20:02.465Z,-0.18
2024-02-02T02:22:30.488Z,-0.22
2024-02-02T02:24:58.187Z,-0.25
2024-02-02T02:27:26.300Z,-0.27
2024-02-02T02:29:54.452Z,-0.33
2024-02-02T02:32:22.456Z,-0.36
2024-02-02T02:34:50.429Z,-0.39
2024-02-02T02:37:18.631Z,-0.39
2024-02-02T02:39:46.418Z,-0.38
2024-02-02T02:42:14.772Z,-0.36
2024-02-02T02:44:42.704Z,-0.35
2024-02-02T02:47:11.803Z,-0.36
2024-02-02T02:49:39.954Z,-0.39
2024-02-02T02:52:07.832Z,-0.42
2024-02-02T02:54:35.903Z,-0.45
2024-02-02T02:57:04.575Z,-0.45
2024-02-02T02:59:33.072Z,-0.45
2024-02-02T03:02:01.157Z,-0.43
2024-02-02T03:04:29.553Z,-0.43
2024-02-02T03:06:57.772Z,-0.41
2024-02-02T03:09:25.800Z,-0.40
2024-02-02T03:11:54.252Z,-0.40
2024-02-02T03:14:22.125Z,-0.39
2024-02-02T03:16:50.622Z,-0.36
2024-02-02T03:19:19.337Z,-0.35
2024-02-02T03:21:47.285Z,-0.34
2024-02-02T03:24:15.271Z,-0.35
2024-02-02T03:26:43.133Z,-0.35
2024-02-02T03:29:10.945Z,-0.38
2024-02-02T03:31:40.005Z,-0.38
2024-02-02T03:34:07.946Z,-0.42
2024-02-02T03:36:36.386Z,-0.44
2024-02-02T03:39:04.372Z,-0.43
2024-02-02T03:41:32.410Z,-0.40
2024-02-02T03:44:00.212Z,-0.39
2024-02-02T03:46:28.285Z,-0.39
2024-02-02T03:48:58.415Z,-0.39
2024-02-02T03:51:26.504Z,-0.45
2024-02-02T03:53:54.800Z,-0.54
2024-02-02T03:56:23.992Z,-0.57
2024-02-02T03:58:51.903Z,-0.58
2024-02-02T04:01:21.247Z,-0.58
2024-02-02T04:03:49.452Z,-0.56
2024-02-02T04:06:17.623Z,-0.53
2024-02-02T04:08:45.763Z,-0.51
2024-02-02T04:11:13.710Z,-0.46
2024-02-02T04:13:42.947Z,-0.42
2024-02-02T04:16:10.871Z,-0.38
2024-02-02T04:18:39.033Z,-0.35
2024-02-02T04:21:07.245Z,-0.33
2024-02-02T04:23:35.262Z,-0.29
2024-02-02T04:26:05.780Z,-0.26
2024-02-02T04:28:33.976Z,-0.23
2024-02-02T04:31:01.934Z,-0.22
2024-02-02T04:33:29.905Z,-0.21
2024-02-02T04:35:58.043Z,-0.21
2024-02-02T04:38:27.678Z,-0.22
2024-02-02T04:40:56.266Z,-0.23
2024-02-02T04:43:24.236Z,-0.21
2024-02-02T04:45:52.158Z,-0.21
2024-02-02T04:48:20.389Z,-0.21
2024-02-02T04:50:48.476Z,-0.22
2024-02-02T04:53:16.472Z,-0.23
2024-02-02T04:55:44.673Z,-0.26
2024-02-02T04:58:12.658Z,-0.27
2024-02-02T05:00:40.746Z,-0.28
2024-02-02T05:03:09.171Z,-0.29
2024-02-02T05:05:38.268Z,-0.27
2024-02-02T05:08:08.110Z,-0.28
2024-02-02T05:10:36.197Z,-0.25
2024-02-02T05:13:04.790Z,-0.23
2024-02-02T05:15:33.259Z,-0.21
2024-02-02T05:18:01.555Z,-0.18
2024-02-02T05:20:30.060Z,-0.17
2024-02-02T05:22:58.010Z,-0.15
2024-02-02T05:25:26.476Z,-0.15
2024-02-02T05:27:55.506Z,-0.14
2024-02-02T05:30:23.498Z,-0.13
2024-02-02T05:32:51.487Z,-0.13
2024-02-02T05:35:19.473Z,-0.13
2024-02-02T05:37:47.477Z,-0.13
2024-02-02T05:40:15.375Z,-0.12
2024-02-02T05:42:44.428Z,-0.12
2024-02-02T05:45:12.636Z,-0.11
2024-02-02T05:47:40.618Z,-0.11
2024-02-02T05:50:09.514Z,-0.13
2024-02-02T05:52:37.363Z,-0.13
2024-02-02T05:55:05.662Z,-0.13
2024-02-02T05:57:33.616Z,-0.15
2024-02-02T06:00:01.568Z,-0.14
2024-02-02T06:02:31.849Z,-0.12
2024-02-02T06:04:59.931Z,-0.12
2024-02-02T06:07:28.036Z,-0.10
2024-02-02T06:09:56.103Z,-0.08
2024-02-02T06:12:25.158Z,-0.08
2024-02-02T06:14:53.258Z,-0.05
2024-02-02T06:17:21.357Z,-0.03
2024-02-02T06:19:49.284Z,-0.01
2024-02-02T06:22:19.193Z,-0.02
2024-02-02T06:24:47.078Z,0.01
2024-02-02T06:27:15.981Z,0.05
2024-02-02T06:29:44.615Z,0.08
2024-02-02T06:32:12.507Z,0.11
2024-02-02T06:34:40.350Z,0.12
2024-02-02T06:37:08.419Z,0.16
2024-02-02T06:39:36.484Z,0.19
2024-02-02T06:42:05.179Z,0.21
2024-02-02T06:44:33.547Z,0.20
2024-02-02T06:47:01.528Z,0.20
2024-02-02T06:49:29.519Z,0.22
2024-02-02T06:51:57.650Z,0.21
2024-02-02T06:54:25.525Z,0.23
2024-02-02T06:56:53.638Z,0.26
2024-02-02T06:59:22.317Z,0.27
2024-02-02T07:01:50.781Z,0.29
2024-02-02T07:04:19.266Z,0.31
2024-02-02T07:06:47.676Z,0.31
2024-02-02T07:09:34.625Z,0.31
2024-02-02T07:12:11.028Z,0.32
2024-02-02T07:14:50.723Z,0.33
2024-02-02T07:17:40.472Z,0.30
2024-02-02T07:20:29.214Z,0.31
2024-02-02T07:23:07.603Z,0.29
2024-02-02T07:25:41.162Z,0.26
2024-02-02T07:28:29.602Z,0.25
2024-02-02T07:30:58.595Z,0.27
2024-02-02T07:33:42.679Z,0.27
2024-02-02T07:36:28.678Z,0.28
2024-02-02T07:38:57.581Z,0.28
2024-02-02T07:41:27.902Z,0.31
2024-02-02T07:44:01.093Z,0.34
2024-02-02T07:46:29.560Z,0.40
2024-02-02T07:48:57.679Z,0.44
2024-02-02T07:51:27.407Z,0.47
2024-02-02T07:53:55.664Z,0.51
2024-02-02T07:56:24.983Z,0.55
2024-02-02T07:58:53.071Z,0.59
2024-02-02T08:01:20.994Z,0.63
2024-02-02T08:03:48.914Z,0.65
2024-02-02T08:06:16.864Z,0.66
2024-02-02T08:08:44.887Z,0.67
2024-02-02T08:11:13.074Z,0.68
2024-02-02T08:13:43.096Z,0.70
2024-02-02T08:16:11.107Z,0.74
2024-02-02T08:18:39.261Z,0.77
2024-02-02T08:21:07.885Z,0.79
2024-02-02T08:23:36.347Z,0.80
2024-02-02T08:26:04.633Z,0.83
2024-02-02T08:28:42.074Z,0.86
2024-02-02T08:31:04.146Z,0.89
2024-02-02T08:33:32.111Z,0.90
2024-02-02T08:36:00.225Z,0.94
2024-02-02T08:38:28.155Z,0.99
2024-02-02T08:40:55.990Z,0.97
2024-02-02T08:43:25.821Z,0.98
2024-02-02T08:46:11.567Z,1.00
2024-02-02T08:48:42.038Z,1.02
2024-02-02T08:51:47.673Z,1.06
2024-02-02T08:54:36.732Z,1.08
2024-02-02T08:57:30.676Z,1.14
2024-02-02T09:00:16.010Z,1.21
2024-02-02T09:03:05.851Z,1.27
2024-02-02T09:05:53.334Z,1.33
2024-02-02T09:08:35.977Z,1.37
2024-02-02T09:11:22.477Z,1.39
2024-02-02T09:13:55.679Z,1.40
2024-02-02T09:16:26.353Z,1.43
2024-02-02T09:18:57.884Z,1.45
2024-02-02T09:21:35.897Z,1.47
2024-02-02T09:24:05.566Z,1.46
2024-02-02T09:26:41.440Z,1.48
2024-02-02T09:29:11.112Z,1.45
2024-02-02T09:31:39.554Z,1.46
2024-02-02T09:34:11.213Z,1.46
2024-02-02T09:36:40.155Z,1.46
2024-02-02T09:39:29.749Z,1.43
2024-02-02T09:42:31.802Z,1.43
2024-02-02T09:45:20.259Z,1.42
2024-02-02T09:48:02.984Z,1.39
2024-02-02T09:51:12.761Z,1.37
2024-02-02T09:53:45.985Z,1.37
2024-02-02T09:56:33.210Z,1.36
2024-02-02T09:59:10.964Z,1.35
2024-02-02T10:01:50.240Z,1.33
2024-02-02T10:04:48.511Z,1.34
2024-02-02T10:07:46.024Z,1.34
2024-02-02T10:10:31.432Z,1.35
2024-02-02T10:13:26.004Z,1.35
2024-02-02T10:16:32.722Z,1.36
2024-02-02T10:19:18.526Z,1.36
2024-02-02T10:22:04.671Z,1.38
2024-02-02T10:25:09.878Z,1.42
2024-02-02T10:27:54.057Z,1.43
2024-02-02T10:30:56.970Z,1.51
2024-02-02T10:34:03.753Z,1.57
2024-02-02T10:37:05.407Z,1.62
2024-02-02T10:39:58.217Z,1.66
2024-02-02T10:42:34.743Z,1.69
2024-02-02T10:45:14.195Z,1.63
2024-02-02T10:48:08.821Z,1.54
2024-02-02T10:51:02.695Z,1.50
2024-02-02T10:54:10.806Z,1.47
2024-02-02T10:57:05.083Z,1.42
2024-02-02T10:59:44.400Z,1.39
2024-02-02T11:02:47.242Z,1.37
2024-02-02T11:05:29.221Z,1.36
2024-02-02T11:08:03.341Z,1.39
2024-02-02T11:10:39.733Z,1.41
2024-02-02T11:13:32.910Z,1.44
2024-02-02T11:16:36.564Z,1.49
2024-02-02T11:19:30.046Z,1.56
2024-02-02T11:22:26.682Z,1.63
2024-02-02T11:25:24.571Z,1.68
2024-02-02T11:28:21.981Z,1.73
2024-02-02T11:30:58.547Z,1.74
2024-02-02T11:33:32.034Z,1.74
2024-02-02T11:36:39.170Z,1.74
2024-02-02T11:39:31.055Z,1.75
2024-02-02T11:42:00.897Z,1.78
2024-02-02T11:44:30.778Z,1.79
2024-02-02T11:47:00.848Z,1.79
2024-02-02T11:49:31.692Z,1.80
2024-02-02T11:52:06.856Z,1.79
2024-02-02T11:54:50.681Z,1.80
2024-02-02T11:57:22.766Z,1.81
2024-02-02T11:59:54.741Z,1.79
2024-02-02T12:03:01.816Z,1.77
2024-02-02T12:05:35.103Z,1.74
2024-02-02T12:08:20.929Z,1.73
2024-02-02T12:10:49.472Z,1.73
2024-02-02T12:13:22.098Z,1.73
2024-02-02T12:15:52.052Z,1.72
2024-02-02T12:18:21.139Z,1.73
2024-02-02T12:20:49.144Z,1.75
2024-02-02T12:23:17.224Z,1.75
2024-02-02T12:25:45.361Z,1.78
2024-02-02T12:28:13.236Z,1.77
2024-02-02T12:30:41.704Z,1.78
2024-02-02T12:33:09.961Z,1.81
2024-02-02T12:35:38.537Z,1.84
2024-02-02T12:38:06.948Z,1.85
2024-02-02T12:40:35.837Z,1.90
2024-02-02T12:43:04.114Z,1.91
2024-02-02T12:45:33.759Z,1.94
2024-02-02T12:48:01.763Z,1.95
2024-02-02T12:50:29.875Z,1.98
2024-02-02T12:52:59.002Z,2.00
2024-02-02T12:55:29.735Z,1.99
2024-02-02T12:57:58.136Z,2.02
2024-02-02T13:00:27.300Z,2.05
2024-02-02T13:02:56.379Z,2.06
2024-02-02T13:05:26.534Z,2.10
2024-02-02T13:07:54.372Z,2.13
2024-02-02T13:10:49.719Z,2.16
2024-02-02T13:13:25.740Z,2.17
2024-02-02T13:15:56.340Z,2.20
2024-02-02T13:18:34.013Z,2.21
2024-02-02T13:21:29.994Z,2.23
2024-02-02T13:24:00.598Z,2.26
2024-02-02T13:26:39.088Z,2.28
2024-02-02T13:29:08.670Z,2.29
2024-02-02T13:31:37.719Z,2.28
2024-02-02T13:34:06.074Z,2.27
2024-02-02T13:36:36.293Z,2.26
2024-02-02T13:39:04.744Z,2.25
2024-02-02T13:41:34.583Z,2.23
2024-02-02T13:44:08.362Z,2.25
2024-02-02T13:46:47.794Z,2.26
2024-02-02T13:49:28.457Z,2.26
2024-02-02T13:51:57.014Z,2.27
2024-02-02T13:54:25.486Z,2.27
2024-02-02T13:56:53.404Z,2.26
2024-02-02T13:59:21.485Z,2.27
2024-02-02T14:01:51.400Z,2.26
2024-02-02T14:04:26.585Z,2.28
2024-02-02T14:06:54.794Z,2.30
2024-02-02T14:09:23.879Z,2.33
2024-02-02T14:12:01.365Z,2.35
2024-02-02T14:14:29.797Z,2.34
2024-02-02T14:17:05.761Z,2.34
2024-02-02T14:19:34.635Z,2.34
2024-02-02T14:22:12.870Z,2.33
2024-02-02T14:24:52.077Z,2.30
2024-02-02T14:27:20.289Z,2.27
2024-02-02T14:29:48.339Z,2.24
2024-02-02T14:32:37.777Z,2.22
2024-02-02T14:35:10.914Z,2.18
2024-02-02T14:37:39.277Z,2.14
2024-02-02T14:40:10.217Z,2.10
2024-02-02T14:42:38.360Z,2.09
2024-02-02T14:45:06.949Z,2.07
2024-02-02T14:47:35.373Z,2.05
2024-02-02T14:50:03.369Z,1.96
2024-02-02T14:52:31.338Z,1.84
2024-02-02T14:54:59.813Z,1.74
2024-02-02T14:57:28.976Z,1.65
2024-02-02T14:59:59.887Z,1.55
2024-02-02T15:02:28.262Z,1.45
2024-02-02T15:05:00.736Z,1.36
2024-02-02T15:07:27.314Z,1.33
2024-02-02T15:09:55.658Z,1.29
2024-02-02T15:12:29.289Z,1.22
2024-02-02T15:14:57.535Z,1.15
2024-02-02T15:17:26.272Z,1.07
2024-02-02T15:19:55.533Z,1.01
2024-02-02T15:22:23.644Z,0.96
2024-02-02T15:24:51.570Z,0.90
2024-02-02T15:27:21.837Z,0.84
2024-02-02T15:29:50.705Z,0.79
2024-02-02T15:32:20.829Z,0.75
2024-02-02T15:34:49.016Z,0.70
2024-02-02T15:37:18.155Z,0.64
2024-02-02T15:39:46.572Z,0.59
2024-02-02T15:42:14.455Z,0.54
2024-02-02T15:44:42.406Z,0.47
2024-02-02T15:47:11.347Z,0.41
2024-02-02T15:49:41.319Z,0.36
2024-02-02T15:52:09.259Z,0.32
2024-02-02T15:54:37.927Z,0.29
2024-02-02T15:57:08.353Z,0.25
2024-02-02T15:59:37.755Z,0.22
2024-02-02T16:02:08.706Z,0.20
2024-02-02T16:04:37.544Z,0.19
2024-02-02T16:07:06.326Z,0.16
2024-02-02T16:09:39.796Z,0.11
2024-02-02T16:12:13.511Z,0.08
2024-02-02T16:14:45.016Z,0.03
2024-02-02T16:17:13.606Z,-0.03
2024-02-02T16:19:41.798Z,-0.06
2024-02-02T16:22:10.276Z,-0.09
2024-02-02T16:24:39.307Z,-0.10
2024-02-02T16:27:07.732Z,-0.12
2024-02-02T16:29:39.761Z,-0.11
2024-02-02T16:32:10.089Z,-0.11
2024-02-02T16:34:38.718Z,-0.11
2024-02-02T16:37:06.693Z,-0.11
2024-02-02T16:39:34.976Z,-0.11
2024-02-02T16:42:03.603Z,-0.12
2024-02-02T16:44:31.491Z,-0.13
2024-02-02T16:47:01.376Z,-0.11
2024-02-02T16:49:30.572Z,-0.11
2024-02-02T16:51:58.575Z,-0.13
2024-02-02T16:54:26.820Z,-0.16
2024-02-02T16:56:54.707Z,-0.17
2024-02-02T16:59:23.981Z,-0.22
2024-02-02T17:01:56.755Z,-0.26
2024-02-02T17:04:24.912Z,-0.29
2024-02-02T17:06:57.322Z,-0.28
2024-02-02T17:09:25.757Z,-0.29
2024-02-02T17:11:53.560Z,-0.30
2024-02-02T17:14:21.950Z,-0.30
2024-02-02T17:16:50.041Z,-0.29
2024-02-02T17:19:18.009Z,-0.29
2024-02-02T17:21:48.918Z,-0.27
2024-02-02T17:24:18.697Z,-0.25
2024-02-02T17:26:48.447Z,-0.26
2024-02-02T17:29:18.260Z,-0.27
2024-02-02T17:31:48.010Z,-0.27
2024-02-02T17:34:21.257Z,-0.28
2024-02-02T17:36:52.367Z,-0.28
2024-02-02T17:39:20.713Z,-0.26
2024-02-02T17:44:44.769Z,-0.27
2024-02-02T17:47:13.524Z,-0.29
2024-02-02T17:49:45.541Z,-0.29
2024-02-02T17:52:13.031Z,-0.30
2024-02-02T17:54:41.463Z,-0.29
2024-02-02T17:57:09.544Z,-0.31
2024-02-02T17:59:38.406Z,-0.31
2024-02-02T18:02:08.876Z,-0.30
2024-02-02T18:04:36.872Z,-0.29
2024-02-02T18:07:05.404Z,-0.30
2024-02-02T18:09:33.808Z,-0.29
2024-02-02T18:12:03.684Z,-0.29
2024-02-02T18:14:32.790Z,-0.27
2024-02-02T18:17:01.968Z,-0.28
2024-02-02T18:19:45.858Z,-0.28
2024-02-02T18:22:14.377Z,-0.30
2024-02-02T18:24:44.214Z,-0.33
2024-02-02T18:27:12.631Z,-0.34
2024-02-02T18:29:41.272Z,-0.36
2024-02-02T18:32:14.616Z,-0.36
2024-02-02T18:34:44.462Z,-0.39
2024-02-02T18:37:14.164Z,-0.39
2024-02-02T18:39:42.664Z,-0.41
2024-02-02T18:42:11.870Z,-0.41
2024-02-02T18:44:39.793Z,-0.40
2024-02-02T18:47:08.109Z,-0.41
2024-02-02T18:49:36.175Z,-0.41
2024-02-02T18:52:06.579Z,-0.41
2024-02-02T18:54:38.988Z,-0.44
2024-02-02T18:57:07.476Z,-0.44
2024-02-02T18:59:40.820Z,-0.48
2024-02-02T19:02:13.199Z,-0.51
2024-02-02T19:04:42.729Z,-0.53
2024-02-02T19:09:39.624Z,-0.70
2024-02-02T19:12:07.821Z,-0.55
2024-02-02T19:14:35.759Z,-0.54
2024-02-02T19:17:04.409Z,-0.55
2024-02-02T19:19:32.681Z,-0.57
2024-02-02T19:22:02.938Z,-0.60
2024-02-02T19:24:31.112Z,-0.61
2024-02-02T19:26:59.158Z,-0.61
2024-02-02T19:29:27.156Z,-0.62
2024-02-02T19:31:57.596Z,-0.64
2024-02-02T19:34:25.744Z,-0.66
2024-02-02T19:36:54.091Z,-0.66
2024-02-02T19:39:22.549Z,-0.68
2024-02-02T19:41:51.104Z,-0.68
2024-02-02T19:44:19.232Z,-0.70
2024-02-02T19:46:49.222Z,-0.73
2024-02-02T19:49:19.737Z,-0.74
2024-02-02T19:51:54.067Z,-0.75
2024-02-02T19:54:26.485Z,-0.77
2024-02-02T19:56:55.700Z,-0.77
2024-02-02T19:59:24.782Z,-0.77
2024-02-02T20:01:55.073Z,-0.77
2024-02-02T20:04:25.851Z,-0.74
2024-02-02T20:07:12.124Z,-0.73
2024-02-02T20:09:40.735Z,-0.73
2024-02-02T20:12:09.623Z,-0.73
2024-02-02T20:14:37.604Z,-0.72
2024-02-02T20:17:06.270Z,-0.72
2024-02-02T20:19:34.179Z,-0.70
2024-02-02T20:22:02.386Z,-0.71
2024-02-02T20:24:32.279Z,-0.70
2024-02-02T20:27:02.052Z,-0.67
2024-02-02T20:29:30.154Z,-0.65
2024-02-02T20:31:59.428Z,-0.62
2024-02-02T20:34:32.590Z,-0.62
2024-02-02T20:37:04.255Z,-0.62
2024-02-02T20:39:36.725Z,-0.60
2024-02-02T20:42:05.626Z,-0.58
2024-02-02T20:44:37.901Z,-0.57
2024-02-02T20:47:07.698Z,-0.55
2024-02-02T20:49:35.904Z,-0.53
2024-02-02T20:52:04.593Z,-0.53
2024-02-02T20:54:33.381Z,-0.52
2024-02-02T20:57:01.553Z,-0.53
2024-02-02T20:59:30.257Z,-0.55
2024-02-02T21:02:03.971Z,-0.58
2024-02-02T21:04:32.945Z,-0.62
2024-02-02T21:07:09.494Z,-0.65
2024-02-02T21:09:39.416Z,-0.65
2024-02-02T21:12:12.478Z,-0.64
2024-02-02T21:14:42.637Z,-0.64
2024-02-02T21:17:11.049Z,-0.63
2024-02-02T21:19:40.497Z,-0.64
2024-02-02T21:22:08.404Z,-0.63
2024-02-02T21:24:36.417Z,-0.63
2024-02-02T21:27:07.626Z,-0.62
2024-02-02T21:29:35.422Z,-0.62
2024-02-02T21:32:05.883Z,-0.65
2024-02-02T21:34:34.028Z,-0.67
2024-02-02T21:37:02.070Z,-0.68
2024-02-02T21:39:30.232Z,-0.68
2024-02-02T21:41:58.405Z,-0.67
2024-02-02T21:44:26.522Z,-0.67
2024-02-02T21:46:54.670Z,-0.68
2024-02-02T21:49:22.863Z,-0.67
2024-02-02T21:51:51.171Z,-0.67
2024-02-02T21:54:18.996Z,-0.65
2024-02-02T21:56:49.436Z,-0.63
2024-02-02T21:59:22.057Z,-0.62
2024-02-02T22:01:50.246Z,-0.63
2024-02-02T22:04:26.730Z,-0.65
2024-02-02T22:06:54.692Z,-0.65
2024-02-02T22:09:28.586Z,-0.66
2024-02-02T22:11:56.653Z,-0.64
2024-02-02T22:14:27.944Z,-0.63
2024-02-02T22:16:55.923Z,-0.62
2024-02-02T22:19:38.044Z,-0.61
2024-02-02T22:22:06.429Z,-0.60
2024-02-02T22:24:41.762Z,-0.59
2024-02-02T22:27:11.667Z,-0.60
2024-02-02T22:29:41.076Z,-0.57
2024-02-02T22:32:08.931Z,-0.55
2024-02-02T22:34:36.876Z,-0.55
2024-02-02T22:37:05.356Z,-0.53
2024-02-02T22:39:33.271Z,-0.50
2024-02-02T22:42:01.139Z,-0.47
2024-02-02T22:44:29.142Z,-0.46
2024-02-02T22:46:57.187Z,-0.45
2024-02-02T22:49:25.423Z,-0.43
2024-02-02T22:51:53.433Z,-0.44
2024-02-02T22:54:21.598Z,-0.44
2024-02-02T22:56:50.204Z,-0.41
2024-02-02T22:59:18.144Z,-0.40
2024-02-02T23:01:46.031Z,-0.39
2024-02-02T23:04:14.137Z,-0.39
2024-02-02T23:06:42.323Z,-0.37
2024-02-02T23:09:12.310Z,-0.35
2024-02-02T23:11:40.449Z,-0.36
2024-02-02T23:14:08.299Z,-0.36
2024-02-02T23:16:36.226Z,-0.34
2024-02-02T23:19:06.074Z,-0.33
2024-02-02T23:21:37.474Z,-0.33
2024-02-02T23:24:06.286Z,-0.33
2024-02-02T23:26:36.143Z,-0.35
2024-02-02T23:29:05.073Z,-0.35
2024-02-02T23:31:33.299Z,-0.34
2024-02-02T23:34:01.290Z,-0.34
2024-02-02T23:36:29.179Z,-0.35
2024-02-02T23:38:57.313Z,-0.35
2024-02-02T23:41:25.257Z,-0.34
2024-02-02T23:43:53.096Z,-0.32
2024-02-02T23:46:20.963Z,-0.32
2024-02-02T23:48:50.096Z,-0.30
2024-02-02T23:51:18.019Z,-0.31
2024-02-02T23:53:46.113Z,-0.31
2024-02-02T23:56:14.232Z,-0.31
2024-02-02T23:58:43.521Z,-0.31
